Armstrong Creek, Wisconsin
Current Conditions -  °F | °C
As of 3:54 PM on Monday 22 Dec 2014 (Local Time) from KIMT Reporting Station
Haze Haze  
Wind Chill: 26°   Ceiling: 900
Heat Index: 33°   Visibility: 4mi
Dew Point: 30°   Wind: 8mph
Humidity: 89%   Direction: 110°ESE
Pressure: 29.81"   Gusts: NA
Location:  45.66°N, 88.45°W
Report Text: KIMT 222154Z AUTO 11007KT 4SM BR OVC009 01/M01 A2981 RMK AO2 CIG 007V012 SLP108 T00061011
Loading
Personal Weather Stations






























Interactive Weather Map New forecast layout! Learn more

10-Day Weather Forecast

Advertisements
Track Severe Weather on mobile